Ana Sayfa
METAR-TAF:

METAR-TAF

Havaalanları :

Phuket Uluslararası Havalimanı

Phuket, Tayland

Enlem: 08-07N, Boylam: 098-19E, yükseklik: 6 m

Güncel hava durumu gözlemi

Rapor saat 18:30 UTC de 36 dakika önce yapıldı.
Rüzgar değişken yönden 3 kt
Sıcaklık 25°C
Nem 79%
Basınç 1010 hPa
Görüş mesafesi: 9000 m
2000 ft yükseklikte az bulutlu

METAR: VTSP 101830Z VRB03KT 9000 FEW020 25/21 Q1010 NOSIG

Saat: 02:06 (19:06 UTC)

Tahmin

Rapor saat 17:00 UTC de 2 saat ve 6 dakika önce yapıldı.
Ayın 10'si saat 18 UTC'den ayın 11'si saat 24 UTC'ye kadar geçerli Tahmin
Rüzgar kuzeydan kt
Görüş mesafesi 10 km veya daha fazla
2000 ft yükseklikte az bulutlu
Dönüşüyor
ayın 11'si saat 00 UTC'den ayın 11'si saat 02 UTC'ye kadar
Rüzgar doğudan 8 kt
Dönüşüyor
ayın 11'si saat 06 UTC'den ayın 11'si saat 08 UTC'ye kadar
Rüzgar batıdan 6 kt

TAF: VTSP 101700Z 1018/1124 00000KT 9999 FEW020 BECMG 1100/1102 08008KT BECMG 1106/1108 28006KT

4.000'den fazla havaalanı için hava durumu gözlemleri ve tahminleri (METAR ve TAF raporları).

Kullanılabilir istasyonlar harita üzerinde sarı ve kırmızı noktalarla gösterilir.

İstasyonun adını görmek için fareyi noktanın üzerinde gezdirin.

Sonrasında hava gözlem ve tahminlerini görmek için tıklayın.

Haritayı değiştirmek için: yaklaştırmak için siyah artı işaretli yeşil düğmeye ve uzaklaştırmak için de eksi işaretli düğmeye hızla tıklayın; bitişik haritalar için yeşil okları kullanın.


METAR-TAF: